sensor_id;sensor_type;location;lat;lon;timestamp;P1;durP1;ratioP1;P2;durP2;ratioP2
29384;SDS011;16367;48.736;9.218;2022-08-01T00:01:27;3.70;;;3.40;;
29384;SDS011;16367;48.736;9.218;2022-08-01T00:03:30;3.97;;;3.57;;
29384;SDS011;16367;48.736;9.218;2022-08-01T00:05:33;3.67;;;3.37;;
29384;SDS011;16367;48.736;9.218;2022-08-01T00:07:36;4.33;;;3.77;;
29384;SDS011;16367;48.736;9.218;2022-08-01T00:09:39;3.67;;;3.37;;
29384;SDS011;16367;48.736;9.218;2022-08-01T00:11:42;3.90;;;3.60;;
29384;SDS011;16367;48.736;9.218;2022-08-01T00:13:46;4.03;;;3.73;;
29384;SDS011;16367;48.736;9.218;2022-08-01T00:15:48;3.70;;;3.40;;
29384;SDS011;16367;48.736;9.218;2022-08-01T00:17:54;3.70;;;3.40;;
29384;SDS011;16367;48.736;9.218;2022-08-01T00:19:57;3.67;;;3.37;;
29384;SDS011;16367;48.736;9.218;2022-08-01T00:22:00;4.43;;;4.03;;
29384;SDS011;16367;48.736;9.218;2022-08-01T00:24:03;4.00;;;3.70;;
29384;SDS011;16367;48.736;9.218;2022-08-01T00:26:14;4.47;;;4.07;;
29384;SDS011;16367;48.736;9.218;2022-08-01T00:28:17;3.90;;;3.60;;
29384;SDS011;16367;48.736;9.218;2022-08-01T00:30:21;4.53;;;3.63;;
29384;SDS011;16367;48.736;9.218;2022-08-01T00:32:24;3.87;;;3.57;;
29384;SDS011;16367;48.736;9.218;2022-08-01T00:34:26;4.10;;;3.70;;
29384;SDS011;16367;48.736;9.218;2022-08-01T00:36:29;4.40;;;4.00;;
29384;SDS011;16367;48.736;9.218;2022-08-01T00:38:32;3.97;;;3.67;;
29384;SDS011;16367;48.736;9.218;2022-08-01T00:40:35;4.40;;;4.00;;
29384;SDS011;16367;48.736;9.218;2022-08-01T00:42:37;4.20;;;3.80;;
29384;SDS011;16367;48.736;9.218;2022-08-01T00:44:44;3.90;;;3.60;;
29384;SDS011;16367;48.736;9.218;2022-08-01T00:46:48;4.53;;;4.13;;
29384;SDS011;16367;48.736;9.218;2022-08-01T00:48:51;4.80;;;4.40;;
29384;SDS011;16367;48.736;9.218;2022-08-01T00:50:54;4.23;;;3.83;;
29384;SDS011;16367;48.736;9.218;2022-08-01T00:52:57;3.87;;;3.57;;
29384;SDS011;16367;48.736;9.218;2022-08-01T00:55:00;4.23;;;3.67;;
29384;SDS011;16367;48.736;9.218;2022-08-01T00:57:04;3.90;;;3.60;;
29384;SDS011;16367;48.736;9.218;2022-08-01T00:59:11;3.80;;;3.50;;
29384;SDS011;16367;48.736;9.218;2022-08-01T01:01:16;3.80;;;3.50;;
29384;SDS011;16367;48.736;9.218;2022-08-01T01:03:23;7.00;;;4.20;;
29384;SDS011;16367;48.736;9.218;2022-08-01T01:05:48;4.60;;;4.20;;
29384;SDS011;16367;48.736;9.218;2022-08-01T01:07:59;3.90;;;3.60;;
29384;SDS011;16367;48.736;9.218;2022-08-01T01:10:07;4.70;;;4.30;;
29384;SDS011;16367;48.736;9.218;2022-08-01T01:12:15;4.30;;;3.90;;
29384;SDS011;16367;48.736;9.218;2022-08-01T01:14:27;4.53;;;4.13;;
29384;SDS011;16367;48.736;9.218;2022-08-01T01:16:35;4.73;;;4.33;;
29384;SDS011;16367;48.736;9.218;2022-08-01T01:18:45;4.47;;;4.17;;
29384;SDS011;16367;48.736;9.218;2022-08-01T01:20:51;4.57;;;4.17;;
29384;SDS011;16367;48.736;9.218;2022-08-01T01:23:15;4.60;;;4.20;;
29384;SDS011;16367;48.736;9.218;2022-08-01T01:25:41;4.40;;;4.00;;
29384;SDS011;16367;48.736;9.218;2022-08-01T01:28:02;5.70;;;4.87;;
29384;SDS011;16367;48.736;9.218;2022-08-01T01:30:12;5.20;;;4.43;;
29384;SDS011;16367;48.736;9.218;2022-08-01T01:32:17;5.90;;;4.07;;
29384;SDS011;16367;48.736;9.218;2022-08-01T01:34:31;4.40;;;4.00;;
29384;SDS011;16367;48.736;9.218;2022-08-01T01:36:38;4.70;;;4.30;;
29384;SDS011;16367;48.736;9.218;2022-08-01T01:38:42;5.47;;;4.90;;
29384;SDS011;16367;48.736;9.218;2022-08-01T01:40:47;5.23;;;4.70;;
29384;SDS011;16367;48.736;9.218;2022-08-01T01:42:52;5.00;;;4.60;;
29384;SDS011;16367;48.736;9.218;2022-08-01T01:44:57;4.50;;;4.10;;
29384;SDS011;16367;48.736;9.218;2022-08-01T01:47:03;4.13;;;3.83;;
29384;SDS011;16367;48.736;9.218;2022-08-01T01:49:07;5.27;;;4.37;;
29384;SDS011;16367;48.736;9.218;2022-08-01T01:51:12;4.87;;;4.47;;
29384;SDS011;16367;48.736;9.218;2022-08-01T01:53:17;4.83;;;4.33;;
29384;SDS011;16367;48.736;9.218;2022-08-01T01:55:22;4.37;;;4.07;;
29384;SDS011;16367;48.736;9.218;2022-08-01T01:57:27;4.37;;;4.07;;
29384;SDS011;16367;48.736;9.218;2022-08-01T01:59:35;4.47;;;4.07;;
29384;SDS011;16367;48.736;9.218;2022-08-01T02:01:40;4.23;;;3.93;;
29384;SDS011;16367;48.736;9.218;2022-08-01T02:04:05;4.70;;;4.30;;
29384;SDS011;16367;48.736;9.218;2022-08-01T02:06:08;4.50;;;4.00;;
29384;SDS011;16367;48.736;9.218;2022-08-01T02:08:14;4.77;;;4.37;;
29384;SDS011;16367;48.736;9.218;2022-08-01T02:10:18;5.47;;;4.00;;
29384;SDS011;16367;48.736;9.218;2022-08-01T02:12:29;6.63;;;4.17;;
29384;SDS011;16367;48.736;9.218;2022-08-01T02:14:35;6.50;;;4.33;;
29384;SDS011;16367;48.736;9.218;2022-08-01T02:16:39;4.53;;;4.07;;
29384;SDS011;16367;48.736;9.218;2022-08-01T02:18:45;4.50;;;4.10;;
29384;SDS011;16367;48.736;9.218;2022-08-01T02:20:49;4.10;;;3.80;;
29384;SDS011;16367;48.736;9.218;2022-08-01T02:22:56;4.87;;;4.47;;
29384;SDS011;16367;48.736;9.218;2022-08-01T02:25:03;4.70;;;4.27;;
29384;SDS011;16367;48.736;9.218;2022-08-01T02:27:14;6.47;;;4.60;;
29384;SDS011;16367;48.736;9.218;2022-08-01T02:29:21;5.00;;;4.47;;
29384;SDS011;16367;48.736;9.218;2022-08-01T02:31:30;4.60;;;4.20;;
29384;SDS011;16367;48.736;9.218;2022-08-01T02:33:36;4.90;;;4.50;;
29384;SDS011;16367;48.736;9.218;2022-08-01T02:35:43;4.60;;;4.27;;
29384;SDS011;16367;48.736;9.218;2022-08-01T02:38:10;6.90;;;4.30;;
29384;SDS011;16367;48.736;9.218;2022-08-01T02:40:16;5.07;;;4.67;;
29384;SDS011;16367;48.736;9.218;2022-08-01T02:42:20;5.23;;;4.40;;
29384;SDS011;16367;48.736;9.218;2022-08-01T02:44:28;4.27;;;3.97;;
29384;SDS011;16367;48.736;9.218;2022-08-01T02:46:35;4.83;;;4.43;;
29384;SDS011;16367;48.736;9.218;2022-08-01T02:48:40;5.20;;;4.30;;
29384;SDS011;16367;48.736;9.218;2022-08-01T02:50:47;4.90;;;4.50;;
29384;SDS011;16367;48.736;9.218;2022-08-01T02:52:51;4.37;;;3.97;;
29384;SDS011;16367;48.736;9.218;2022-08-01T02:54:57;6.20;;;4.50;;
29384;SDS011;16367;48.736;9.218;2022-08-01T02:57:02;5.53;;;5.03;;
29384;SDS011;16367;48.736;9.218;2022-08-01T02:59:08;5.50;;;4.60;;
29384;SDS011;16367;48.736;9.218;2022-08-01T03:01:14;4.93;;;4.40;;
29384;SDS011;16367;48.736;9.218;2022-08-01T03:03:20;6.10;;;4.60;;
29384;SDS011;16367;48.736;9.218;2022-08-01T03:05:24;4.50;;;4.20;;
29384;SDS011;16367;48.736;9.218;2022-08-01T03:07:28;5.47;;;4.97;;
29384;SDS011;16367;48.736;9.218;2022-08-01T03:09:42;5.10;;;4.60;;
29384;SDS011;16367;48.736;9.218;2022-08-01T03:11:48;5.10;;;4.70;;
29384;SDS011;16367;48.736;9.218;2022-08-01T03:13:52;5.23;;;4.30;;
29384;SDS011;16367;48.736;9.218;2022-08-01T03:15:56;4.40;;;4.00;;
29384;SDS011;16367;48.736;9.218;2022-08-01T03:18:00;7.00;;;4.20;;
29384;SDS011;16367;48.736;9.218;2022-08-01T03:20:04;4.93;;;4.40;;
29384;SDS011;16367;48.736;9.218;2022-08-01T03:22:10;5.03;;;4.53;;
29384;SDS011;16367;48.736;9.218;2022-08-01T03:24:14;4.90;;;4.50;;
29384;SDS011;16367;48.736;9.218;2022-08-01T03:26:19;4.70;;;4.30;;
29384;SDS011;16367;48.736;9.218;2022-08-01T03:28:23;4.73;;;4.33;;
29384;SDS011;16367;48.736;9.218;2022-08-01T03:30:30;5.40;;;4.90;;
29384;SDS011;16367;48.736;9.218;2022-08-01T03:32:34;5.00;;;4.60;;
29384;SDS011;16367;48.736;9.218;2022-08-01T03:34:37;5.00;;;4.47;;
29384;SDS011;16367;48.736;9.218;2022-08-01T03:36:43;5.07;;;4.57;;
29384;SDS011;16367;48.736;9.218;2022-08-01T03:38:50;4.77;;;4.37;;
29384;SDS011;16367;48.736;9.218;2022-08-01T03:40:55;4.57;;;4.10;;
29384;SDS011;16367;48.736;9.218;2022-08-01T03:43:02;6.60;;;4.63;;
29384;SDS011;16367;48.736;9.218;2022-08-01T03:45:10;5.80;;;4.63;;
29384;SDS011;16367;48.736;9.218;2022-08-01T03:47:18;4.80;;;4.40;;
29384;SDS011;16367;48.736;9.218;2022-08-01T03:49:25;4.77;;;4.40;;
29384;SDS011;16367;48.736;9.218;2022-08-01T03:51:32;4.77;;;4.30;;
29384;SDS011;16367;48.736;9.218;2022-08-01T03:53:35;4.40;;;4.00;;
29384;SDS011;16367;48.736;9.218;2022-08-01T03:55:42;5.17;;;4.67;;
29384;SDS011;16367;48.736;9.218;2022-08-01T03:57:46;4.87;;;4.47;;
29384;SDS011;16367;48.736;9.218;2022-08-01T03:59:50;4.57;;;4.10;;
29384;SDS011;16367;48.736;9.218;2022-08-01T04:01:56;4.50;;;4.00;;
29384;SDS011;16367;48.736;9.218;2022-08-01T04:04:00;5.30;;;4.80;;
29384;SDS011;16367;48.736;9.218;2022-08-01T04:06:06;4.87;;;4.40;;
29384;SDS011;16367;48.736;9.218;2022-08-01T04:08:11;5.00;;;4.50;;
29384;SDS011;16367;48.736;9.218;2022-08-01T04:10:14;4.90;;;4.50;;
29384;SDS011;16367;48.736;9.218;2022-08-01T04:12:16;4.50;;;4.10;;
29384;SDS011;16367;48.736;9.218;2022-08-01T04:14:20;4.90;;;4.50;;
29384;SDS011;16367;48.736;9.218;2022-08-01T04:16:22;4.50;;;4.13;;
29384;SDS011;16367;48.736;9.218;2022-08-01T04:18:26;4.70;;;4.00;;
29384;SDS011;16367;48.736;9.218;2022-08-01T04:20:29;4.00;;;3.70;;
29384;SDS011;16367;48.736;9.218;2022-08-01T04:22:32;3.90;;;3.43;;
29384;SDS011;16367;48.736;9.218;2022-08-01T04:24:37;4.30;;;3.90;;
29384;SDS011;16367;48.736;9.218;2022-08-01T04:26:42;4.53;;;4.13;;
29384;SDS011;16367;48.736;9.218;2022-08-01T04:28:47;5.13;;;3.90;;
29384;SDS011;16367;48.736;9.218;2022-08-01T04:30:54;5.53;;;5.03;;
29384;SDS011;16367;48.736;9.218;2022-08-01T04:33:03;4.40;;;4.00;;
29384;SDS011;16367;48.736;9.218;2022-08-01T04:35:11;4.03;;;3.63;;
29384;SDS011;16367;48.736;9.218;2022-08-01T04:37:37;4.20;;;3.90;;
29384;SDS011;16367;48.736;9.218;2022-08-01T04:39:43;3.70;;;3.33;;
29384;SDS011;16367;48.736;9.218;2022-08-01T04:41:51;4.40;;;4.00;;
29384;SDS011;16367;48.736;9.218;2022-08-01T04:43:57;4.50;;;3.90;;
29384;SDS011;16367;48.736;9.218;2022-08-01T04:46:01;4.00;;;3.60;;
29384;SDS011;16367;48.736;9.218;2022-08-01T04:48:05;3.70;;;3.40;;
29384;SDS011;16367;48.736;9.218;2022-08-01T04:50:11;4.57;;;3.60;;
29384;SDS011;16367;48.736;9.218;2022-08-01T04:52:14;3.57;;;3.27;;
29384;SDS011;16367;48.736;9.218;2022-08-01T04:54:25;4.10;;;3.70;;
29384;SDS011;16367;48.736;9.218;2022-08-01T04:56:28;3.87;;;3.20;;
29384;SDS011;16367;48.736;9.218;2022-08-01T04:58:31;4.27;;;3.87;;
29384;SDS011;16367;48.736;9.218;2022-08-01T05:00:34;3.50;;;3.20;;
29384;SDS011;16367;48.736;9.218;2022-08-01T05:02:36;3.77;;;3.47;;
29384;SDS011;16367;48.736;9.218;2022-08-01T05:04:39;3.47;;;3.17;;
29384;SDS011;16367;48.736;9.218;2022-08-01T05:06:44;4.03;;;3.10;;
29384;SDS011;16367;48.736;9.218;2022-08-01T05:08:46;3.57;;;3.27;;
29384;SDS011;16367;48.736;9.218;2022-08-01T05:10:49;3.37;;;3.07;;
29384;SDS011;16367;48.736;9.218;2022-08-01T05:12:52;4.10;;;3.80;;
29384;SDS011;16367;48.736;9.218;2022-08-01T05:14:55;3.40;;;3.10;;
29384;SDS011;16367;48.736;9.218;2022-08-01T05:16:57;3.50;;;3.20;;
29384;SDS011;16367;48.736;9.218;2022-08-01T05:19:00;3.43;;;3.13;;
29384;SDS011;16367;48.736;9.218;2022-08-01T05:21:03;3.73;;;3.27;;
29384;SDS011;16367;48.736;9.218;2022-08-01T05:23:08;3.60;;;3.30;;
29384;SDS011;16367;48.736;9.218;2022-08-01T05:25:26;3.50;;;3.20;;
29384;SDS011;16367;48.736;9.218;2022-08-01T05:27:49;4.77;;;3.30;;
29384;SDS011;16367;48.736;9.218;2022-08-01T05:29:52;4.50;;;4.10;;
29384;SDS011;16367;48.736;9.218;2022-08-01T05:31:54;4.93;;;4.40;;
29384;SDS011;16367;48.736;9.218;2022-08-01T05:33:57;3.90;;;3.50;;
29384;SDS011;16367;48.736;9.218;2022-08-01T05:36:00;4.17;;;3.47;;
29384;SDS011;16367;48.736;9.218;2022-08-01T05:38:03;3.57;;;3.27;;
29384;SDS011;16367;48.736;9.218;2022-08-01T05:40:07;4.13;;;3.73;;
29384;SDS011;16367;48.736;9.218;2022-08-01T05:42:11;4.27;;;3.17;;
29384;SDS011;16367;48.736;9.218;2022-08-01T05:44:13;3.53;;;3.23;;
29384;SDS011;16367;48.736;9.218;2022-08-01T05:46:16;3.23;;;3.03;;
29384;SDS011;16367;48.736;9.218;2022-08-01T05:48:19;5.07;;;3.57;;
29384;SDS011;16367;48.736;9.218;2022-08-01T05:50:21;3.50;;;3.20;;
29384;SDS011;16367;48.736;9.218;2022-08-01T05:52:24;3.80;;;3.50;;
29384;SDS011;16367;48.736;9.218;2022-08-01T05:54:27;4.30;;;3.23;;
29384;SDS011;16367;48.736;9.218;2022-08-01T05:56:31;3.30;;;3.00;;
29384;SDS011;16367;48.736;9.218;2022-08-01T05:58:34;5.10;;;3.60;;
29384;SDS011;16367;48.736;9.218;2022-08-01T06:00:36;3.43;;;3.07;;
29384;SDS011;16367;48.736;9.218;2022-08-01T06:02:40;3.87;;;3.20;;
29384;SDS011;16367;48.736;9.218;2022-08-01T06:04:43;3.60;;;3.30;;
29384;SDS011;16367;48.736;9.218;2022-08-01T06:06:46;4.63;;;3.43;;
29384;SDS011;16367;48.736;9.218;2022-08-01T06:08:49;3.50;;;3.20;;
29384;SDS011;16367;48.736;9.218;2022-08-01T06:10:53;3.30;;;3.00;;
29384;SDS011;16367;48.736;9.218;2022-08-01T06:12:57;3.40;;;3.10;;
29384;SDS011;16367;48.736;9.218;2022-08-01T06:15:00;4.47;;;3.27;;
29384;SDS011;16367;48.736;9.218;2022-08-01T06:17:03;3.23;;;2.80;;
29384;SDS011;16367;48.736;9.218;2022-08-01T06:19:06;2.83;;;2.63;;
29384;SDS011;16367;48.736;9.218;2022-08-01T06:21:08;3.37;;;3.07;;
29384;SDS011;16367;48.736;9.218;2022-08-01T06:23:11;6.00;;;3.40;;
29384;SDS011;16367;48.736;9.218;2022-08-01T06:25:33;3.37;;;2.90;;
29384;SDS011;16367;48.736;9.218;2022-08-01T06:27:36;4.67;;;2.90;;
29384;SDS011;16367;48.736;9.218;2022-08-01T06:29:41;3.50;;;2.70;;
29384;SDS011;16367;48.736;9.218;2022-08-01T06:31:54;3.27;;;2.90;;
29384;SDS011;16367;48.736;9.218;2022-08-01T06:33:57;3.47;;;3.10;;
29384;SDS011;16367;48.736;9.218;2022-08-01T06:36:00;3.13;;;2.80;;
29384;SDS011;16367;48.736;9.218;2022-08-01T06:38:02;3.50;;;2.80;;
29384;SDS011;16367;48.736;9.218;2022-08-01T06:40:06;3.17;;;2.90;;
29384;SDS011;16367;48.736;9.218;2022-08-01T06:42:17;3.17;;;2.63;;
29384;SDS011;16367;48.736;9.218;2022-08-01T06:44:19;3.40;;;2.80;;
29384;SDS011;16367;48.736;9.218;2022-08-01T06:46:24;3.27;;;2.57;;
29384;SDS011;16367;48.736;9.218;2022-08-01T06:48:32;3.17;;;2.80;;
29384;SDS011;16367;48.736;9.218;2022-08-01T06:50:36;3.93;;;2.50;;
29384;SDS011;16367;48.736;9.218;2022-08-01T06:52:39;2.73;;;2.20;;
29384;SDS011;16367;48.736;9.218;2022-08-01T06:54:42;2.40;;;2.20;;
29384;SDS011;16367;48.736;9.218;2022-08-01T06:56:45;3.17;;;2.33;;
29384;SDS011;16367;48.736;9.218;2022-08-01T06:58:48;3.00;;;2.70;;
29384;SDS011;16367;48.736;9.218;2022-08-01T07:00:51;2.80;;;2.60;;
29384;SDS011;16367;48.736;9.218;2022-08-01T07:02:59;2.80;;;2.37;;
29384;SDS011;16367;48.736;9.218;2022-08-01T07:05:02;3.40;;;2.43;;
29384;SDS011;16367;48.736;9.218;2022-08-01T07:07:05;2.80;;;2.60;;
29384;SDS011;16367;48.736;9.218;2022-08-01T07:09:08;2.90;;;2.63;;
29384;SDS011;16367;48.736;9.218;2022-08-01T07:11:14;3.33;;;3.03;;
29384;SDS011;16367;48.736;9.218;2022-08-01T07:13:17;2.97;;;2.67;;
29384;SDS011;16367;48.736;9.218;2022-08-01T07:15:22;2.60;;;2.40;;
29384;SDS011;16367;48.736;9.218;2022-08-01T07:17:27;2.63;;;2.40;;
29384;SDS011;16367;48.736;9.218;2022-08-01T07:19:31;3.30;;;2.20;;
29384;SDS011;16367;48.736;9.218;2022-08-01T07:21:38;2.70;;;2.50;;
29384;SDS011;16367;48.736;9.218;2022-08-01T07:23:45;3.27;;;2.43;;
29384;SDS011;16367;48.736;9.218;2022-08-01T07:25:48;6.00;;;2.50;;
29384;SDS011;16367;48.736;9.218;2022-08-01T07:27:53;3.40;;;2.70;;
29384;SDS011;16367;48.736;9.218;2022-08-01T07:29:56;3.23;;;2.50;;
29384;SDS011;16367;48.736;9.218;2022-08-01T07:31:59;2.93;;;2.73;;
29384;SDS011;16367;48.736;9.218;2022-08-01T07:34:01;3.07;;;2.50;;
29384;SDS011;16367;48.736;9.218;2022-08-01T07:36:06;3.10;;;2.80;;
29384;SDS011;16367;48.736;9.218;2022-08-01T07:38:09;2.80;;;2.60;;
29384;SDS011;16367;48.736;9.218;2022-08-01T07:40:13;3.20;;;2.63;;
29384;SDS011;16367;48.736;9.218;2022-08-01T07:42:16;4.50;;;2.70;;
29384;SDS011;16367;48.736;9.218;2022-08-01T07:44:19;3.37;;;2.67;;
29384;SDS011;16367;48.736;9.218;2022-08-01T07:46:21;3.20;;;2.60;;
29384;SDS011;16367;48.736;9.218;2022-08-01T07:48:24;2.67;;;2.47;;
29384;SDS011;16367;48.736;9.218;2022-08-01T07:50:28;2.87;;;2.67;;
29384;SDS011;16367;48.736;9.218;2022-08-01T07:52:35;4.50;;;2.57;;
29384;SDS011;16367;48.736;9.218;2022-08-01T07:54:38;3.20;;;2.80;;
29384;SDS011;16367;48.736;9.218;2022-08-01T07:56:41;3.07;;;2.77;;
29384;SDS011;16367;48.736;9.218;2022-08-01T07:58:44;3.13;;;2.83;;
29384;SDS011;16367;48.736;9.218;2022-08-01T08:00:47;2.50;;;2.30;;
29384;SDS011;16367;48.736;9.218;2022-08-01T08:02:51;3.20;;;3.00;;
29384;SDS011;16367;48.736;9.218;2022-08-01T08:04:54;3.23;;;3.03;;
29384;SDS011;16367;48.736;9.218;2022-08-01T08:06:57;3.27;;;3.07;;
29384;SDS011;16367;48.736;9.218;2022-08-01T08:09:01;3.90;;;3.20;;
29384;SDS011;16367;48.736;9.218;2022-08-01T08:11:04;3.40;;;3.10;;
29384;SDS011;16367;48.736;9.218;2022-08-01T08:13:07;3.50;;;3.20;;
29384;SDS011;16367;48.736;9.218;2022-08-01T08:15:10;3.17;;;2.97;;
29384;SDS011;16367;48.736;9.218;2022-08-01T08:17:12;2.87;;;2.67;;
29384;SDS011;16367;48.736;9.218;2022-08-01T08:19:15;3.53;;;3.23;;
29384;SDS011;16367;48.736;9.218;2022-08-01T08:21:18;3.10;;;2.90;;
29384;SDS011;16367;48.736;9.218;2022-08-01T08:23:20;3.30;;;2.90;;
29384;SDS011;16367;48.736;9.218;2022-08-01T08:25:45;3.80;;;3.10;;
29384;SDS011;16367;48.736;9.218;2022-08-01T08:27:48;2.93;;;2.73;;
29384;SDS011;16367;48.736;9.218;2022-08-01T08:29:50;3.37;;;3.10;;
29384;SDS011;16367;48.736;9.218;2022-08-01T08:31:53;3.87;;;3.57;;
29384;SDS011;16367;48.736;9.218;2022-08-01T08:33:57;3.80;;;3.10;;
29384;SDS011;16367;48.736;9.218;2022-08-01T08:36:00;3.43;;;3.17;;
29384;SDS011;16367;48.736;9.218;2022-08-01T08:38:02;4.70;;;3.23;;
29384;SDS011;16367;48.736;9.218;2022-08-01T08:40:08;4.07;;;3.70;;
29384;SDS011;16367;48.736;9.218;2022-08-01T08:42:13;3.97;;;3.63;;
29384;SDS011;16367;48.736;9.218;2022-08-01T08:44:16;4.57;;;3.80;;
29384;SDS011;16367;48.736;9.218;2022-08-01T08:46:21;4.40;;;4.00;;
29384;SDS011;16367;48.736;9.218;2022-08-01T08:48:28;4.30;;;4.00;;
29384;SDS011;16367;48.736;9.218;2022-08-01T08:50:32;4.30;;;3.90;;
29384;SDS011;16367;48.736;9.218;2022-08-01T08:52:35;4.00;;;3.70;;
29384;SDS011;16367;48.736;9.218;2022-08-01T08:54:41;4.07;;;3.77;;
29384;SDS011;16367;48.736;9.218;2022-08-01T08:56:45;3.77;;;3.47;;
29384;SDS011;16367;48.736;9.218;2022-08-01T08:58:51;3.37;;;3.13;;
29384;SDS011;16367;48.736;9.218;2022-08-01T09:00:54;6.03;;;3.57;;
29384;SDS011;16367;48.736;9.218;2022-08-01T09:02:57;3.97;;;3.57;;
29384;SDS011;16367;48.736;9.218;2022-08-01T09:04:59;3.43;;;3.13;;
29384;SDS011;16367;48.736;9.218;2022-08-01T09:07:03;3.70;;;3.37;;
29384;SDS011;16367;48.736;9.218;2022-08-01T09:09:07;3.90;;;3.60;;
29384;SDS011;16367;48.736;9.218;2022-08-01T09:11:10;3.70;;;3.40;;
29384;SDS011;16367;48.736;9.218;2022-08-01T09:13:22;3.93;;;3.63;;
29384;SDS011;16367;48.736;9.218;2022-08-01T09:15:30;3.97;;;3.57;;
29384;SDS011;16367;48.736;9.218;2022-08-01T09:17:40;3.90;;;3.60;;
29384;SDS011;16367;48.736;9.218;2022-08-01T09:19:46;4.50;;;4.13;;
29384;SDS011;16367;48.736;9.218;2022-08-01T09:21:55;4.20;;;3.90;;
29384;SDS011;16367;48.736;9.218;2022-08-01T09:23:59;4.90;;;4.50;;
29384;SDS011;16367;48.736;9.218;2022-08-01T09:26:04;5.17;;;4.63;;
29384;SDS011;16367;48.736;9.218;2022-08-01T09:28:08;8.80;;;4.50;;
29384;SDS011;16367;48.736;9.218;2022-08-01T09:30:12;4.20;;;3.90;;
29384;SDS011;16367;48.736;9.218;2022-08-01T09:32:25;5.73;;;4.03;;
29384;SDS011;16367;48.736;9.218;2022-08-01T09:34:34;4.80;;;4.40;;
29384;SDS011;16367;48.736;9.218;2022-08-01T09:36:44;5.17;;;4.77;;
29384;SDS011;16367;48.736;9.218;2022-08-01T09:39:11;4.50;;;4.10;;
29384;SDS011;16367;48.736;9.218;2022-08-01T09:41:15;5.53;;;5.03;;
29384;SDS011;16367;48.736;9.218;2022-08-01T09:43:20;5.47;;;4.93;;
29384;SDS011;16367;48.736;9.218;2022-08-01T09:45:31;6.30;;;4.27;;
29384;SDS011;16367;48.736;9.218;2022-08-01T09:47:45;4.70;;;4.30;;
29384;SDS011;16367;48.736;9.218;2022-08-01T09:49:52;5.60;;;5.10;;
29384;SDS011;16367;48.736;9.218;2022-08-01T09:52:09;5.53;;;5.07;;
29384;SDS011;16367;48.736;9.218;2022-08-01T09:54:13;5.53;;;4.97;;
29384;SDS011;16367;48.736;9.218;2022-08-01T09:56:35;6.50;;;5.70;;
29384;SDS011;16367;48.736;9.218;2022-08-01T09:58:49;8.57;;;7.77;;
29384;SDS011;16367;48.736;9.218;2022-08-01T10:01:02;8.07;;;7.47;;
29384;SDS011;16367;48.736;9.218;2022-08-01T10:03:19;8.83;;;7.13;;
29384;SDS011;16367;48.736;9.218;2022-08-01T10:05:30;8.83;;;8.13;;
29384;SDS011;16367;48.736;9.218;2022-08-01T10:10:08;8.40;;;7.60;;
29384;SDS011;16367;48.736;9.218;2022-08-01T10:12:13;8.33;;;7.63;;
29384;SDS011;16367;48.736;9.218;2022-08-01T10:14:18;8.27;;;7.53;;
29384;SDS011;16367;48.736;9.218;2022-08-01T10:16:21;7.73;;;7.13;;
29384;SDS011;16367;48.736;9.218;2022-08-01T10:18:28;6.83;;;6.27;;
29384;SDS011;16367;48.736;9.218;2022-08-01T10:20:34;7.47;;;6.77;;
29384;SDS011;16367;48.736;9.218;2022-08-01T10:22:38;7.33;;;6.73;;
29384;SDS011;16367;48.736;9.218;2022-08-01T10:24:43;7.67;;;6.20;;
29384;SDS011;16367;48.736;9.218;2022-08-01T10:26:48;6.70;;;6.10;;
29384;SDS011;16367;48.736;9.218;2022-08-01T10:28:56;6.17;;;5.73;;
29384;SDS011;16367;48.736;9.218;2022-08-01T10:31:01;7.40;;;6.00;;
29384;SDS011;16367;48.736;9.218;2022-08-01T10:33:12;6.90;;;6.40;;
29384;SDS011;16367;48.736;9.218;2022-08-01T10:35:37;7.10;;;6.50;;
29384;SDS011;16367;48.736;9.218;2022-08-01T10:37:48;6.80;;;6.30;;
29384;SDS011;16367;48.736;9.218;2022-08-01T10:39:53;7.23;;;6.63;;
29384;SDS011;16367;48.736;9.218;2022-08-01T10:42:16;7.50;;;6.90;;
29384;SDS011;16367;48.736;9.218;2022-08-01T10:44:20;6.80;;;6.30;;
29384;SDS011;16367;48.736;9.218;2022-08-01T10:46:24;6.43;;;6.03;;
29384;SDS011;16367;48.736;9.218;2022-08-01T10:48:29;6.30;;;5.80;;
29384;SDS011;16367;48.736;9.218;2022-08-01T10:50:39;6.20;;;5.80;;
29384;SDS011;16367;48.736;9.218;2022-08-01T10:55:40;6.90;;;5.83;;
29384;SDS011;16367;48.736;9.218;2022-08-01T10:57:48;5.87;;;5.40;;
29384;SDS011;16367;48.736;9.218;2022-08-01T10:59:53;5.83;;;5.33;;
29384;SDS011;16367;48.736;9.218;2022-08-01T11:02:03;6.20;;;5.77;;
29384;SDS011;16367;48.736;9.218;2022-08-01T11:04:08;6.00;;;5.40;;
29384;SDS011;16367;48.736;9.218;2022-08-01T11:06:18;6.43;;;5.00;;
29384;SDS011;16367;48.736;9.218;2022-08-01T11:08:26;5.10;;;4.70;;
29384;SDS011;16367;48.736;9.218;2022-08-01T11:10:33;5.63;;;5.13;;
29384;SDS011;16367;48.736;9.218;2022-08-01T11:12:40;5.67;;;5.20;;
29384;SDS011;16367;48.736;9.218;2022-08-01T11:17:31;5.60;;;5.10;;
29384;SDS011;16367;48.736;9.218;2022-08-01T11:22:10;5.17;;;4.77;;
29384;SDS011;16367;48.736;9.218;2022-08-01T11:24:13;5.67;;;5.13;;
29384;SDS011;16367;48.736;9.218;2022-08-01T11:26:16;5.80;;;5.10;;
29384;SDS011;16367;48.736;9.218;2022-08-01T11:28:30;5.83;;;5.43;;
29384;SDS011;16367;48.736;9.218;2022-08-01T11:30:37;5.63;;;5.20;;
29384;SDS011;16367;48.736;9.218;2022-08-01T11:32:45;5.80;;;5.30;;
29384;SDS011;16367;48.736;9.218;2022-08-01T11:35:08;5.63;;;5.23;;
29384;SDS011;16367;48.736;9.218;2022-08-01T11:37:25;5.53;;;5.13;;
29384;SDS011;16367;48.736;9.218;2022-08-01T11:39:31;5.17;;;4.77;;
29384;SDS011;16367;48.736;9.218;2022-08-01T11:41:39;5.80;;;5.20;;
29384;SDS011;16367;48.736;9.218;2022-08-01T11:43:55;5.80;;;5.33;;
29384;SDS011;16367;48.736;9.218;2022-08-01T11:45:59;6.00;;;5.50;;
29384;SDS011;16367;48.736;9.218;2022-08-01T11:48:03;5.50;;;5.10;;
29384;SDS011;16367;48.736;9.218;2022-08-01T11:50:29;5.27;;;4.77;;
29384;SDS011;16367;48.736;9.218;2022-08-01T11:52:34;5.90;;;5.50;;
29384;SDS011;16367;48.736;9.218;2022-08-01T11:54:42;5.80;;;5.20;;
29384;SDS011;16367;48.736;9.218;2022-08-01T11:56:46;5.47;;;5.07;;
29384;SDS011;16367;48.736;9.218;2022-08-01T11:58:49;5.70;;;5.30;;
29384;SDS011;16367;48.736;9.218;2022-08-01T12:01:01;5.07;;;4.67;;
29384;SDS011;16367;48.736;9.218;2022-08-01T12:03:05;6.93;;;4.80;;
29384;SDS011;16367;48.736;9.218;2022-08-01T12:05:09;5.50;;;4.87;;
29384;SDS011;16367;48.736;9.218;2022-08-01T12:07:14;4.63;;;4.20;;
29384;SDS011;16367;48.736;9.218;2022-08-01T12:09:21;4.33;;;4.03;;
29384;SDS011;16367;48.736;9.218;2022-08-01T12:11:25;5.07;;;4.67;;
29384;SDS011;16367;48.736;9.218;2022-08-01T12:13:40;5.30;;;4.47;;
29384;SDS011;16367;48.736;9.218;2022-08-01T12:15:44;4.43;;;4.03;;
29384;SDS011;16367;48.736;9.218;2022-08-01T12:17:49;5.20;;;4.80;;
29384;SDS011;16367;48.736;9.218;2022-08-01T12:19:59;5.13;;;4.60;;
29384;SDS011;16367;48.736;9.218;2022-08-01T12:22:09;3.80;;;3.50;;
29384;SDS011;16367;48.736;9.218;2022-08-01T12:24:13;4.67;;;4.37;;
29384;SDS011;16367;48.736;9.218;2022-08-01T12:26:38;4.97;;;4.20;;
29384;SDS011;16367;48.736;9.218;2022-08-01T12:28:41;4.30;;;4.00;;
29384;SDS011;16367;48.736;9.218;2022-08-01T12:30:46;4.43;;;4.13;;
29384;SDS011;16367;48.736;9.218;2022-08-01T12:32:50;4.80;;;4.40;;
29384;SDS011;16367;48.736;9.218;2022-08-01T12:34:54;4.97;;;4.50;;
29384;SDS011;16367;48.736;9.218;2022-08-01T12:37:00;6.33;;;4.20;;
29384;SDS011;16367;48.736;9.218;2022-08-01T12:39:04;4.40;;;4.10;;
29384;SDS011;16367;48.736;9.218;2022-08-01T12:41:11;4.93;;;4.53;;
29384;SDS011;16367;48.736;9.218;2022-08-01T12:43:15;4.63;;;4.23;;
29384;SDS011;16367;48.736;9.218;2022-08-01T12:45:28;4.73;;;4.33;;
29384;SDS011;16367;48.736;9.218;2022-08-01T12:47:34;4.67;;;4.27;;
29384;SDS011;16367;48.736;9.218;2022-08-01T12:49:38;4.77;;;4.37;;
29384;SDS011;16367;48.736;9.218;2022-08-01T12:51:44;4.70;;;4.00;;